<?xml version="1.0" encoding="UTF-8" standalone="no" ?>
<gpx xmlns="http://www.topografix.com/GPX/1/1" xmlns:xsi="http://www.w3.org/2001/XMLSchema-instance" xsi:schemaLocation="http://www.topografix.com/GPX/1/1 http://www.topografix.com/GPX/1/1/gpx.xsd" version="1.1" creator="VisuGPX - https://www.visugpx.com">
  <metadata>
    <name>VTT du mercredi 15 août 2012 (à deux)</name>
    <desc><![CDATA[Terrain sec, grosse chaleur]]></desc>
  </metadata>
  <trk>
    <name><![CDATA[Coulevon8 on GPSies.com]]></name>
    <trkseg>
      <trkpt lat="47.64461" lon="6.18274">
        <ele>230</ele>
        <time>2010-01-01T00:00:00Z</time>
      </trkpt>
      <trkpt lat="47.64483" lon="6.18238">
        <ele>228</ele>
        <time>2010-01-01T00:00:13Z</time>
      </trkpt>
      <trkpt lat="47.64505" lon="6.18173">
        <ele>226</ele>
        <time>2010-01-01T00:00:32Z</time>
      </trkpt>
      <trkpt lat="47.64496" lon="6.18168">
        <ele>225</ele>
        <time>2010-01-01T00:00:36Z</time>
      </trkpt>
      <trkpt lat="47.64493" lon="6.18136">
        <ele>224</ele>
        <time>2010-01-01T00:00:45Z</time>
      </trkpt>
      <trkpt lat="47.6451" lon="6.18048">
        <ele>225</ele>
        <time>2010-01-01T00:01:09Z</time>
      </trkpt>
      <trkpt lat="47.64535" lon="6.18028">
        <ele>228</ele>
        <time>2010-01-01T00:01:21Z</time>
      </trkpt>
      <trkpt lat="47.64548" lon="6.17997">
        <ele>229</ele>
        <time>2010-01-01T00:01:31Z</time>
      </trkpt>
      <trkpt lat="47.64566" lon="6.17931">
        <ele>225</ele>
        <time>2010-01-01T00:01:50Z</time>
      </trkpt>
      <trkpt lat="47.64597" lon="6.17896">
        <ele>224</ele>
        <time>2010-01-01T00:02:05Z</time>
      </trkpt>
      <trkpt lat="47.64622" lon="6.17885">
        <ele>223</ele>
        <time>2010-01-01T00:02:16Z</time>
      </trkpt>
      <trkpt lat="47.6467" lon="6.17907">
        <ele>222</ele>
        <time>2010-01-01T00:02:36Z</time>
      </trkpt>
      <trkpt lat="47.64688" lon="6.17924">
        <ele>222</ele>
        <time>2010-01-01T00:02:45Z</time>
      </trkpt>
      <trkpt lat="47.64761" lon="6.18035">
        <ele>227</ele>
        <time>2010-01-01T00:03:26Z</time>
      </trkpt>
      <trkpt lat="47.64784" lon="6.18057">
        <ele>228</ele>
        <time>2010-01-01T00:03:37Z</time>
      </trkpt>
      <trkpt lat="47.64864" lon="6.1808">
        <ele>226</ele>
        <time>2010-01-01T00:04:10Z</time>
      </trkpt>
      <trkpt lat="47.64954" lon="6.18098">
        <ele>230</ele>
        <time>2010-01-01T00:04:46Z</time>
      </trkpt>
      <trkpt lat="47.65034" lon="6.18092">
        <ele>232</ele>
        <time>2010-01-01T00:05:18Z</time>
      </trkpt>
      <trkpt lat="47.65067" lon="6.18096">
        <ele>233</ele>
        <time>2010-01-01T00:05:32Z</time>
      </trkpt>
      <trkpt lat="47.65092" lon="6.18106">
        <ele>236</ele>
        <time>2010-01-01T00:05:42Z</time>
      </trkpt>
      <trkpt lat="47.65108" lon="6.18105">
        <ele>236</ele>
        <time>2010-01-01T00:05:48Z</time>
      </trkpt>
      <trkpt lat="47.65141" lon="6.18085">
        <ele>233</ele>
        <time>2010-01-01T00:06:03Z</time>
      </trkpt>
      <trkpt lat="47.65156" lon="6.18068">
        <ele>232</ele>
        <time>2010-01-01T00:06:10Z</time>
      </trkpt>
      <trkpt lat="47.65194" lon="6.18008">
        <ele>227</ele>
        <time>2010-01-01T00:06:32Z</time>
      </trkpt>
      <trkpt lat="47.65209" lon="6.17992">
        <ele>226</ele>
        <time>2010-01-01T00:06:40Z</time>
      </trkpt>
      <trkpt lat="47.65236" lon="6.17976">
        <ele>227</ele>
        <time>2010-01-01T00:06:51Z</time>
      </trkpt>
      <trkpt lat="47.65259" lon="6.17977">
        <ele>227</ele>
        <time>2010-01-01T00:07:01Z</time>
      </trkpt>
      <trkpt lat="47.65278" lon="6.17994">
        <ele>227</ele>
        <time>2010-01-01T00:07:10Z</time>
      </trkpt>
      <trkpt lat="47.65284" lon="6.18005">
        <ele>227</ele>
        <time>2010-01-01T00:07:13Z</time>
      </trkpt>
      <trkpt lat="47.65292" lon="6.18027">
        <ele>229</ele>
        <time>2010-01-01T00:07:20Z</time>
      </trkpt>
      <trkpt lat="47.65312" lon="6.18131">
        <ele>233</ele>
        <time>2010-01-01T00:07:49Z</time>
      </trkpt>
      <trkpt lat="47.65335" lon="6.18174">
        <ele>231</ele>
        <time>2010-01-01T00:08:04Z</time>
      </trkpt>
      <trkpt lat="47.65383" lon="6.18225">
        <ele>232</ele>
        <time>2010-01-01T00:08:28Z</time>
      </trkpt>
      <trkpt lat="47.65433" lon="6.18256">
        <ele>231</ele>
        <time>2010-01-01T00:08:49Z</time>
      </trkpt>
      <trkpt lat="47.65468" lon="6.18262">
        <ele>234</ele>
        <time>2010-01-01T00:09:04Z</time>
      </trkpt>
      <trkpt lat="47.65516" lon="6.1825">
        <ele>234</ele>
        <time>2010-01-01T00:09:23Z</time>
      </trkpt>
      <trkpt lat="47.65544" lon="6.18238">
        <ele>235</ele>
        <time>2010-01-01T00:09:35Z</time>
      </trkpt>
      <trkpt lat="47.65566" lon="6.18222">
        <ele>235</ele>
        <time>2010-01-01T00:09:44Z</time>
      </trkpt>
      <trkpt lat="47.6558" lon="6.18209">
        <ele>234</ele>
        <time>2010-01-01T00:09:51Z</time>
      </trkpt>
      <trkpt lat="47.65607" lon="6.1817">
        <ele>231</ele>
        <time>2010-01-01T00:10:06Z</time>
      </trkpt>
      <trkpt lat="47.6562" lon="6.18163">
        <ele>232</ele>
        <time>2010-01-01T00:10:12Z</time>
      </trkpt>
      <trkpt lat="47.65638" lon="6.1817">
        <ele>234</ele>
        <time>2010-01-01T00:10:19Z</time>
      </trkpt>
      <trkpt lat="47.6567" lon="6.18138">
        <ele>235</ele>
        <time>2010-01-01T00:10:35Z</time>
      </trkpt>
      <trkpt lat="47.65704" lon="6.1808">
        <ele>234</ele>
        <time>2010-01-01T00:10:55Z</time>
      </trkpt>
      <trkpt lat="47.6572" lon="6.1806">
        <ele>234</ele>
        <time>2010-01-01T00:11:04Z</time>
      </trkpt>
      <trkpt lat="47.65774" lon="6.18028">
        <ele>237</ele>
        <time>2010-01-01T00:11:27Z</time>
      </trkpt>
      <trkpt lat="47.6585" lon="6.17963">
        <ele>234</ele>
        <time>2010-01-01T00:12:02Z</time>
      </trkpt>
      <trkpt lat="47.65872" lon="6.17954">
        <ele>233</ele>
        <time>2010-01-01T00:12:11Z</time>
      </trkpt>
      <trkpt lat="47.6593" lon="6.17948">
        <ele>232</ele>
        <time>2010-01-01T00:12:35Z</time>
      </trkpt>
      <trkpt lat="47.66155" lon="6.17949">
        <ele>230</ele>
        <time>2010-01-01T00:14:05Z</time>
      </trkpt>
      <trkpt lat="47.66291" lon="6.17972">
        <ele>228</ele>
        <time>2010-01-01T00:14:59Z</time>
      </trkpt>
      <trkpt lat="47.66309" lon="6.17973">
        <ele>228</ele>
        <time>2010-01-01T00:15:07Z</time>
      </trkpt>
      <trkpt lat="47.66328" lon="6.17967">
        <ele>227</ele>
        <time>2010-01-01T00:15:14Z</time>
      </trkpt>
      <trkpt lat="47.66344" lon="6.18016">
        <ele>228</ele>
        <time>2010-01-01T00:15:29Z</time>
      </trkpt>
      <trkpt lat="47.66369" lon="6.18066">
        <ele>230</ele>
        <time>2010-01-01T00:15:46Z</time>
      </trkpt>
      <trkpt lat="47.66395" lon="6.18103">
        <ele>230</ele>
        <time>2010-01-01T00:16:00Z</time>
      </trkpt>
      <trkpt lat="47.66443" lon="6.18158">
        <ele>230</ele>
        <time>2010-01-01T00:16:25Z</time>
      </trkpt>
      <trkpt lat="47.66472" lon="6.18225">
        <ele>231</ele>
        <time>2010-01-01T00:16:46Z</time>
      </trkpt>
      <trkpt lat="47.66486" lon="6.18248">
        <ele>231</ele>
        <time>2010-01-01T00:16:54Z</time>
      </trkpt>
      <trkpt lat="47.66725" lon="6.18485">
        <ele>237</ele>
        <time>2010-01-01T00:18:49Z</time>
      </trkpt>
      <trkpt lat="47.66802" lon="6.1851">
        <ele>239</ele>
        <time>2010-01-01T00:19:21Z</time>
      </trkpt>
      <trkpt lat="47.66836" lon="6.18529">
        <ele>239</ele>
        <time>2010-01-01T00:19:35Z</time>
      </trkpt>
      <trkpt lat="47.66867" lon="6.18556">
        <ele>239</ele>
        <time>2010-01-01T00:19:50Z</time>
      </trkpt>
      <trkpt lat="47.66904" lon="6.18579">
        <ele>239</ele>
        <time>2010-01-01T00:20:06Z</time>
      </trkpt>
      <trkpt lat="47.67026" lon="6.18605">
        <ele>240</ele>
        <time>2010-01-01T00:20:55Z</time>
      </trkpt>
      <trkpt lat="47.67244" lon="6.18624">
        <ele>244</ele>
        <time>2010-01-01T00:22:23Z</time>
      </trkpt>
      <trkpt lat="47.67646" lon="6.18618">
        <ele>261</ele>
        <time>2010-01-01T00:25:04Z</time>
      </trkpt>
      <trkpt lat="47.6772" lon="6.18629">
        <ele>259</ele>
        <time>2010-01-01T00:25:33Z</time>
      </trkpt>
      <trkpt lat="47.67763" lon="6.18616">
        <ele>260</ele>
        <time>2010-01-01T00:25:51Z</time>
      </trkpt>
      <trkpt lat="47.67778" lon="6.18603">
        <ele>261</ele>
        <time>2010-01-01T00:25:58Z</time>
      </trkpt>
      <trkpt lat="47.6779" lon="6.186">
        <ele>261</ele>
        <time>2010-01-01T00:26:03Z</time>
      </trkpt>
      <trkpt lat="47.67871" lon="6.18621">
        <ele>262</ele>
        <time>2010-01-01T00:26:36Z</time>
      </trkpt>
      <trkpt lat="47.67882" lon="6.18609">
        <ele>263</ele>
        <time>2010-01-01T00:26:41Z</time>
      </trkpt>
      <trkpt lat="47.67901" lon="6.18601">
        <ele>263</ele>
        <time>2010-01-01T00:26:49Z</time>
      </trkpt>
      <trkpt lat="47.67944" lon="6.18629">
        <ele>265</ele>
        <time>2010-01-01T00:27:08Z</time>
      </trkpt>
      <trkpt lat="47.67965" lon="6.18636">
        <ele>266</ele>
        <time>2010-01-01T00:27:16Z</time>
      </trkpt>
      <trkpt lat="47.68012" lon="6.1862">
        <ele>269</ele>
        <time>2010-01-01T00:27:36Z</time>
      </trkpt>
      <trkpt lat="47.68027" lon="6.18605">
        <ele>270</ele>
        <time>2010-01-01T00:27:43Z</time>
      </trkpt>
      <trkpt lat="47.68043" lon="6.18622">
        <ele>272</ele>
        <time>2010-01-01T00:27:51Z</time>
      </trkpt>
      <trkpt lat="47.68073" lon="6.1864">
        <ele>275</ele>
        <time>2010-01-01T00:28:04Z</time>
      </trkpt>
      <trkpt lat="47.68117" lon="6.18648">
        <ele>280</ele>
        <time>2010-01-01T00:28:22Z</time>
      </trkpt>
      <trkpt lat="47.68133" lon="6.18657">
        <ele>282</ele>
        <time>2010-01-01T00:28:28Z</time>
      </trkpt>
      <trkpt lat="47.68163" lon="6.18693">
        <ele>287</ele>
        <time>2010-01-01T00:28:44Z</time>
      </trkpt>
      <trkpt lat="47.68203" lon="6.18711">
        <ele>289</ele>
        <time>2010-01-01T00:29:01Z</time>
      </trkpt>
      <trkpt lat="47.68221" lon="6.18737">
        <ele>290</ele>
        <time>2010-01-01T00:29:11Z</time>
      </trkpt>
      <trkpt lat="47.68267" lon="6.18764">
        <ele>291</ele>
        <time>2010-01-01T00:29:30Z</time>
      </trkpt>
      <trkpt lat="47.68336" lon="6.1883">
        <ele>288</ele>
        <time>2010-01-01T00:30:03Z</time>
      </trkpt>
      <trkpt lat="47.68352" lon="6.18838">
        <ele>285</ele>
        <time>2010-01-01T00:30:10Z</time>
      </trkpt>
      <trkpt lat="47.68376" lon="6.18841">
        <ele>280</ele>
        <time>2010-01-01T00:30:20Z</time>
      </trkpt>
      <trkpt lat="47.68408" lon="6.18854">
        <ele>274</ele>
        <time>2010-01-01T00:30:33Z</time>
      </trkpt>
      <trkpt lat="47.68483" lon="6.18858">
        <ele>263</ele>
        <time>2010-01-01T00:31:03Z</time>
      </trkpt>
      <trkpt lat="47.68558" lon="6.18874">
        <ele>257</ele>
        <time>2010-01-01T00:31:33Z</time>
      </trkpt>
      <trkpt lat="47.686" lon="6.18874">
        <ele>254</ele>
        <time>2010-01-01T00:31:50Z</time>
      </trkpt>
      <trkpt lat="47.68644" lon="6.18883">
        <ele>251</ele>
        <time>2010-01-01T00:32:08Z</time>
      </trkpt>
      <trkpt lat="47.68853" lon="6.1897">
        <ele>250</ele>
        <time>2010-01-01T00:33:35Z</time>
      </trkpt>
      <trkpt lat="47.69064" lon="6.18981">
        <ele>241</ele>
        <time>2010-01-01T00:34:59Z</time>
      </trkpt>
      <trkpt lat="47.69197" lon="6.19024">
        <ele>235</ele>
        <time>2010-01-01T00:35:54Z</time>
      </trkpt>
      <trkpt lat="47.69277" lon="6.19032">
        <ele>234</ele>
        <time>2010-01-01T00:36:26Z</time>
      </trkpt>
      <trkpt lat="47.69393" lon="6.19125">
        <ele>235</ele>
        <time>2010-01-01T00:37:19Z</time>
      </trkpt>
      <trkpt lat="47.69493" lon="6.19195">
        <ele>235</ele>
        <time>2010-01-01T00:38:03Z</time>
      </trkpt>
      <trkpt lat="47.69545" lon="6.19276">
        <ele>235</ele>
        <time>2010-01-01T00:38:33Z</time>
      </trkpt>
      <trkpt lat="47.69564" lon="6.19278">
        <ele>235</ele>
        <time>2010-01-01T00:38:41Z</time>
      </trkpt>
      <trkpt lat="47.69618" lon="6.19261">
        <ele>235</ele>
        <time>2010-01-01T00:39:03Z</time>
      </trkpt>
      <trkpt lat="47.69695" lon="6.19212">
        <ele>235</ele>
        <time>2010-01-01T00:39:36Z</time>
      </trkpt>
      <trkpt lat="47.69754" lon="6.1916">
        <ele>234</ele>
        <time>2010-01-01T00:40:04Z</time>
      </trkpt>
      <trkpt lat="47.69823" lon="6.19108">
        <ele>235</ele>
        <time>2010-01-01T00:40:35Z</time>
      </trkpt>
      <trkpt lat="47.69803" lon="6.18943">
        <ele>236</ele>
        <time>2010-01-01T00:41:20Z</time>
      </trkpt>
      <trkpt lat="47.69804" lon="6.18909">
        <ele>236</ele>
        <time>2010-01-01T00:41:29Z</time>
      </trkpt>
      <trkpt lat="47.69808" lon="6.18893">
        <ele>236</ele>
        <time>2010-01-01T00:41:34Z</time>
      </trkpt>
      <trkpt lat="47.69827" lon="6.18882">
        <ele>236</ele>
        <time>2010-01-01T00:41:42Z</time>
      </trkpt>
      <trkpt lat="47.69749" lon="6.18782">
        <ele>236</ele>
        <time>2010-01-01T00:42:23Z</time>
      </trkpt>
      <trkpt lat="47.6976" lon="6.18772">
        <ele>236</ele>
        <time>2010-01-01T00:42:28Z</time>
      </trkpt>
      <trkpt lat="47.6978" lon="6.18764">
        <ele>236</ele>
        <time>2010-01-01T00:42:37Z</time>
      </trkpt>
      <trkpt lat="47.69849" lon="6.18748">
        <ele>238</ele>
        <time>2010-01-01T00:43:05Z</time>
      </trkpt>
      <trkpt lat="47.69905" lon="6.18739">
        <ele>238</ele>
        <time>2010-01-01T00:43:27Z</time>
      </trkpt>
      <trkpt lat="47.69949" lon="6.1875">
        <ele>237</ele>
        <time>2010-01-01T00:43:45Z</time>
      </trkpt>
      <trkpt lat="47.69976" lon="6.18745">
        <ele>236</ele>
        <time>2010-01-01T00:43:56Z</time>
      </trkpt>
      <trkpt lat="47.69999" lon="6.18734">
        <ele>235</ele>
        <time>2010-01-01T00:44:05Z</time>
      </trkpt>
      <trkpt lat="47.70079" lon="6.18668">
        <ele>235</ele>
        <time>2010-01-01T00:44:42Z</time>
      </trkpt>
      <trkpt lat="47.70107" lon="6.18651">
        <ele>236</ele>
        <time>2010-01-01T00:44:54Z</time>
      </trkpt>
      <trkpt lat="47.70153" lon="6.18634">
        <ele>238</ele>
        <time>2010-01-01T00:45:13Z</time>
      </trkpt>
      <trkpt lat="47.7021" lon="6.18626">
        <ele>241</ele>
        <time>2010-01-01T00:45:36Z</time>
      </trkpt>
      <trkpt lat="47.70236" lon="6.18566">
        <ele>245</ele>
        <time>2010-01-01T00:45:55Z</time>
      </trkpt>
      <trkpt lat="47.70298" lon="6.18378">
        <ele>254</ele>
        <time>2010-01-01T00:46:52Z</time>
      </trkpt>
      <trkpt lat="47.70314" lon="6.18268">
        <ele>258</ele>
        <time>2010-01-01T00:47:22Z</time>
      </trkpt>
      <trkpt lat="47.70334" lon="6.18166">
        <ele>261</ele>
        <time>2010-01-01T00:47:51Z</time>
      </trkpt>
      <trkpt lat="47.70375" lon="6.18084">
        <ele>262</ele>
        <time>2010-01-01T00:48:18Z</time>
      </trkpt>
      <trkpt lat="47.70435" lon="6.17989">
        <ele>266</ele>
        <time>2010-01-01T00:48:53Z</time>
      </trkpt>
      <trkpt lat="47.70519" lon="6.17837">
        <ele>275</ele>
        <time>2010-01-01T00:49:46Z</time>
      </trkpt>
      <trkpt lat="47.7055" lon="6.17789">
        <ele>279</ele>
        <time>2010-01-01T00:50:04Z</time>
      </trkpt>
      <trkpt lat="47.70608" lon="6.17782">
        <ele>280</ele>
        <time>2010-01-01T00:50:28Z</time>
      </trkpt>
      <trkpt lat="47.70634" lon="6.17764">
        <ele>281</ele>
        <time>2010-01-01T00:50:39Z</time>
      </trkpt>
      <trkpt lat="47.70668" lon="6.17712">
        <ele>281</ele>
        <time>2010-01-01T00:50:59Z</time>
      </trkpt>
      <trkpt lat="47.70681" lon="6.17701">
        <ele>281</ele>
        <time>2010-01-01T00:51:05Z</time>
      </trkpt>
      <trkpt lat="47.70738" lon="6.17683">
        <ele>284</ele>
        <time>2010-01-01T00:51:28Z</time>
      </trkpt>
      <trkpt lat="47.70759" lon="6.17664">
        <ele>286</ele>
        <time>2010-01-01T00:51:38Z</time>
      </trkpt>
      <trkpt lat="47.70767" lon="6.17651">
        <ele>286</ele>
        <time>2010-01-01T00:51:42Z</time>
      </trkpt>
      <trkpt lat="47.70809" lon="6.17561">
        <ele>292</ele>
        <time>2010-01-01T00:52:12Z</time>
      </trkpt>
      <trkpt lat="47.70809" lon="6.17541">
        <ele>292</ele>
        <time>2010-01-01T00:52:17Z</time>
      </trkpt>
      <trkpt lat="47.708" lon="6.17479">
        <ele>292</ele>
        <time>2010-01-01T00:52:34Z</time>
      </trkpt>
      <trkpt lat="47.70722" lon="6.16999">
        <ele>295</ele>
        <time>2010-01-01T00:54:47Z</time>
      </trkpt>
      <trkpt lat="47.70684" lon="6.16749">
        <ele>295</ele>
        <time>2010-01-01T00:55:56Z</time>
      </trkpt>
      <trkpt lat="47.7064" lon="6.16209">
        <ele>296</ele>
        <time>2010-01-01T00:58:23Z</time>
      </trkpt>
      <trkpt lat="47.69982" lon="6.16305">
        <ele>271</ele>
        <time>2010-01-01T01:02:48Z</time>
      </trkpt>
      <trkpt lat="47.69962" lon="6.16305">
        <ele>270</ele>
        <time>2010-01-01T01:02:56Z</time>
      </trkpt>
      <trkpt lat="47.69951" lon="6.16299">
        <ele>270</ele>
        <time>2010-01-01T01:03:00Z</time>
      </trkpt>
      <trkpt lat="47.69911" lon="6.16212">
        <ele>267</ele>
        <time>2010-01-01T01:03:29Z</time>
      </trkpt>
      <trkpt lat="47.69844" lon="6.16099">
        <ele>263</ele>
        <time>2010-01-01T01:04:09Z</time>
      </trkpt>
      <trkpt lat="47.69771" lon="6.16037">
        <ele>260</ele>
        <time>2010-01-01T01:04:43Z</time>
      </trkpt>
      <trkpt lat="47.6975" lon="6.16036">
        <ele>260</ele>
        <time>2010-01-01T01:04:51Z</time>
      </trkpt>
      <trkpt lat="47.69668" lon="6.1612">
        <ele>260</ele>
        <time>2010-01-01T01:05:31Z</time>
      </trkpt>
      <trkpt lat="47.69577" lon="6.16189">
        <ele>260</ele>
        <time>2010-01-01T01:06:12Z</time>
      </trkpt>
      <trkpt lat="47.6948" lon="6.16297">
        <ele>255</ele>
        <time>2010-01-01T01:07:01Z</time>
      </trkpt>
      <trkpt lat="47.69462" lon="6.1631">
        <ele>255</ele>
        <time>2010-01-01T01:07:09Z</time>
      </trkpt>
      <trkpt lat="47.69452" lon="6.16311">
        <ele>255</ele>
        <time>2010-01-01T01:07:13Z</time>
      </trkpt>
      <trkpt lat="47.69412" lon="6.16294">
        <ele>255</ele>
        <time>2010-01-01T01:07:29Z</time>
      </trkpt>
      <trkpt lat="47.69387" lon="6.16296">
        <ele>252</ele>
        <time>2010-01-01T01:07:39Z</time>
      </trkpt>
      <trkpt lat="47.69258" lon="6.16395">
        <ele>248</ele>
        <time>2010-01-01T01:08:37Z</time>
      </trkpt>
      <trkpt lat="47.69175" lon="6.16418">
        <ele>249</ele>
        <time>2010-01-01T01:09:11Z</time>
      </trkpt>
      <trkpt lat="47.68954" lon="6.16394">
        <ele>250</ele>
        <time>2010-01-01T01:10:40Z</time>
      </trkpt>
      <trkpt lat="47.68918" lon="6.1641">
        <ele>250</ele>
        <time>2010-01-01T01:10:55Z</time>
      </trkpt>
      <trkpt lat="47.68827" lon="6.16465">
        <ele>245</ele>
        <time>2010-01-01T01:11:34Z</time>
      </trkpt>
      <trkpt lat="47.68801" lon="6.16473">
        <ele>246</ele>
        <time>2010-01-01T01:11:45Z</time>
      </trkpt>
      <trkpt lat="47.68721" lon="6.16438">
        <ele>244</ele>
        <time>2010-01-01T01:12:18Z</time>
      </trkpt>
      <trkpt lat="47.68702" lon="6.16435">
        <ele>244</ele>
        <time>2010-01-01T01:12:26Z</time>
      </trkpt>
      <trkpt lat="47.68686" lon="6.1644">
        <ele>244</ele>
        <time>2010-01-01T01:12:33Z</time>
      </trkpt>
      <trkpt lat="47.68632" lon="6.16489">
        <ele>242</ele>
        <time>2010-01-01T01:12:58Z</time>
      </trkpt>
      <trkpt lat="47.68596" lon="6.16502">
        <ele>240</ele>
        <time>2010-01-01T01:13:13Z</time>
      </trkpt>
      <trkpt lat="47.68569" lon="6.16503">
        <ele>240</ele>
        <time>2010-01-01T01:13:24Z</time>
      </trkpt>
      <trkpt lat="47.68512" lon="6.16495">
        <ele>239</ele>
        <time>2010-01-01T01:13:46Z</time>
      </trkpt>
      <trkpt lat="47.68486" lon="6.1648">
        <ele>239</ele>
        <time>2010-01-01T01:13:58Z</time>
      </trkpt>
      <trkpt lat="47.68464" lon="6.16496">
        <ele>239</ele>
        <time>2010-01-01T01:14:07Z</time>
      </trkpt>
      <trkpt lat="47.68444" lon="6.16525">
        <ele>238</ele>
        <time>2010-01-01T01:14:19Z</time>
      </trkpt>
      <trkpt lat="47.68407" lon="6.16566">
        <ele>235</ele>
        <time>2010-01-01T01:14:37Z</time>
      </trkpt>
      <trkpt lat="47.6836" lon="6.16602">
        <ele>234</ele>
        <time>2010-01-01T01:14:58Z</time>
      </trkpt>
      <trkpt lat="47.68357" lon="6.16584">
        <ele>234</ele>
        <time>2010-01-01T01:15:03Z</time>
      </trkpt>
      <trkpt lat="47.68297" lon="6.16425">
        <ele>234</ele>
        <time>2010-01-01T01:15:52Z</time>
      </trkpt>
      <trkpt lat="47.68293" lon="6.16403">
        <ele>233</ele>
        <time>2010-01-01T01:15:58Z</time>
      </trkpt>
      <trkpt lat="47.68289" lon="6.16365">
        <ele>233</ele>
        <time>2010-01-01T01:16:09Z</time>
      </trkpt>
      <trkpt lat="47.68293" lon="6.16348">
        <ele>233</ele>
        <time>2010-01-01T01:16:14Z</time>
      </trkpt>
      <trkpt lat="47.68301" lon="6.16334">
        <ele>233</ele>
        <time>2010-01-01T01:16:19Z</time>
      </trkpt>
      <trkpt lat="47.68239" lon="6.1629">
        <ele>231</ele>
        <time>2010-01-01T01:16:46Z</time>
      </trkpt>
      <trkpt lat="47.68207" lon="6.16259">
        <ele>232</ele>
        <time>2010-01-01T01:17:01Z</time>
      </trkpt>
      <trkpt lat="47.68203" lon="6.16229">
        <ele>233</ele>
        <time>2010-01-01T01:17:10Z</time>
      </trkpt>
      <trkpt lat="47.68213" lon="6.16205">
        <ele>233</ele>
        <time>2010-01-01T01:17:17Z</time>
      </trkpt>
      <trkpt lat="47.68229" lon="6.16086">
        <ele>234</ele>
        <time>2010-01-01T01:17:50Z</time>
      </trkpt>
      <trkpt lat="47.6823" lon="6.16058">
        <ele>234</ele>
        <time>2010-01-01T01:17:58Z</time>
      </trkpt>
      <trkpt lat="47.68213" lon="6.15951">
        <ele>236</ele>
        <time>2010-01-01T01:18:27Z</time>
      </trkpt>
      <trkpt lat="47.68183" lon="6.1583">
        <ele>236</ele>
        <time>2010-01-01T01:19:02Z</time>
      </trkpt>
      <trkpt lat="47.6818" lon="6.15797">
        <ele>236</ele>
        <time>2010-01-01T01:19:11Z</time>
      </trkpt>
      <trkpt lat="47.68178" lon="6.1571">
        <ele>236</ele>
        <time>2010-01-01T01:19:34Z</time>
      </trkpt>
      <trkpt lat="47.6819" lon="6.15417">
        <ele>249</ele>
        <time>2010-01-01T01:20:53Z</time>
      </trkpt>
      <trkpt lat="47.6822" lon="6.15257">
        <ele>256</ele>
        <time>2010-01-01T01:21:38Z</time>
      </trkpt>
      <trkpt lat="47.68353" lon="6.15179">
        <ele>262</ele>
        <time>2010-01-01T01:22:35Z</time>
      </trkpt>
      <trkpt lat="47.6836" lon="6.15171">
        <ele>262</ele>
        <time>2010-01-01T01:22:39Z</time>
      </trkpt>
      <trkpt lat="47.68365" lon="6.15155">
        <ele>262</ele>
        <time>2010-01-01T01:22:44Z</time>
      </trkpt>
      <trkpt lat="47.68369" lon="6.14865">
        <ele>264</ele>
        <time>2010-01-01T01:24:02Z</time>
      </trkpt>
      <trkpt lat="47.68369" lon="6.1477">
        <ele>265</ele>
        <time>2010-01-01T01:24:28Z</time>
      </trkpt>
      <trkpt lat="47.68366" lon="6.14736">
        <ele>265</ele>
        <time>2010-01-01T01:24:37Z</time>
      </trkpt>
      <trkpt lat="47.68341" lon="6.14659">
        <ele>266</ele>
        <time>2010-01-01T01:25:00Z</time>
      </trkpt>
      <trkpt lat="47.68267" lon="6.14504">
        <ele>269</ele>
        <time>2010-01-01T01:25:51Z</time>
      </trkpt>
      <trkpt lat="47.68129" lon="6.14217">
        <ele>272</ele>
        <time>2010-01-01T01:27:26Z</time>
      </trkpt>
      <trkpt lat="47.68223" lon="6.14093">
        <ele>278</ele>
        <time>2010-01-01T01:28:16Z</time>
      </trkpt>
      <trkpt lat="47.68292" lon="6.13961">
        <ele>281</ele>
        <time>2010-01-01T01:29:01Z</time>
      </trkpt>
      <trkpt lat="47.68367" lon="6.13851">
        <ele>283</ele>
        <time>2010-01-01T01:29:44Z</time>
      </trkpt>
      <trkpt lat="47.68395" lon="6.1378">
        <ele>284</ele>
        <time>2010-01-01T01:30:06Z</time>
      </trkpt>
      <trkpt lat="47.68524" lon="6.1354">
        <ele>286</ele>
        <time>2010-01-01T01:31:29Z</time>
      </trkpt>
      <trkpt lat="47.68621" lon="6.13373">
        <ele>288</ele>
        <time>2010-01-01T01:32:28Z</time>
      </trkpt>
      <trkpt lat="47.68695" lon="6.13257">
        <ele>288</ele>
        <time>2010-01-01T01:33:11Z</time>
      </trkpt>
      <trkpt lat="47.6868" lon="6.13248">
        <ele>287</ele>
        <time>2010-01-01T01:33:18Z</time>
      </trkpt>
      <trkpt lat="47.68637" lon="6.13198">
        <ele>285</ele>
        <time>2010-01-01T01:33:39Z</time>
      </trkpt>
      <trkpt lat="47.68561" lon="6.13101">
        <ele>283</ele>
        <time>2010-01-01T01:34:20Z</time>
      </trkpt>
      <trkpt lat="47.68549" lon="6.13072">
        <ele>282</ele>
        <time>2010-01-01T01:34:29Z</time>
      </trkpt>
      <trkpt lat="47.6853" lon="6.12996">
        <ele>286</ele>
        <time>2010-01-01T01:34:51Z</time>
      </trkpt>
      <trkpt lat="47.68437" lon="6.12759">
        <ele>282</ele>
        <time>2010-01-01T01:36:04Z</time>
      </trkpt>
      <trkpt lat="47.68065" lon="6.11836">
        <ele>264</ele>
        <time>2010-01-01T01:40:54Z</time>
      </trkpt>
      <trkpt lat="47.68044" lon="6.1179">
        <ele>269</ele>
        <time>2010-01-01T01:41:09Z</time>
      </trkpt>
      <trkpt lat="47.68035" lon="6.11786">
        <ele>269</ele>
        <time>2010-01-01T01:41:13Z</time>
      </trkpt>
      <trkpt lat="47.67833" lon="6.11956">
        <ele>265</ele>
        <time>2010-01-01T01:42:46Z</time>
      </trkpt>
      <trkpt lat="47.67547" lon="6.12231">
        <ele>247</ele>
        <time>2010-01-01T01:45:02Z</time>
      </trkpt>
      <trkpt lat="47.67481" lon="6.12302">
        <ele>245</ele>
        <time>2010-01-01T01:45:35Z</time>
      </trkpt>
      <trkpt lat="47.67446" lon="6.12362">
        <ele>244</ele>
        <time>2010-01-01T01:45:56Z</time>
      </trkpt>
      <trkpt lat="47.67411" lon="6.12394">
        <ele>243</ele>
        <time>2010-01-01T01:46:13Z</time>
      </trkpt>
      <trkpt lat="47.67391" lon="6.12404">
        <ele>243</ele>
        <time>2010-01-01T01:46:21Z</time>
      </trkpt>
      <trkpt lat="47.67509" lon="6.12467">
        <ele>241</ele>
        <time>2010-01-01T01:47:12Z</time>
      </trkpt>
      <trkpt lat="47.67527" lon="6.12482">
        <ele>243</ele>
        <time>2010-01-01T01:47:20Z</time>
      </trkpt>
      <trkpt lat="47.67539" lon="6.12506">
        <ele>243</ele>
        <time>2010-01-01T01:47:28Z</time>
      </trkpt>
      <trkpt lat="47.6754" lon="6.12536">
        <ele>242</ele>
        <time>2010-01-01T01:47:36Z</time>
      </trkpt>
      <trkpt lat="47.67513" lon="6.12602">
        <ele>240</ele>
        <time>2010-01-01T01:47:57Z</time>
      </trkpt>
      <trkpt lat="47.6739" lon="6.12739">
        <ele>239</ele>
        <time>2010-01-01T01:48:58Z</time>
      </trkpt>
      <trkpt lat="47.67358" lon="6.12764">
        <ele>237</ele>
        <time>2010-01-01T01:49:13Z</time>
      </trkpt>
      <trkpt lat="47.67322" lon="6.12784">
        <ele>236</ele>
        <time>2010-01-01T01:49:28Z</time>
      </trkpt>
      <trkpt lat="47.67106" lon="6.12853">
        <ele>235</ele>
        <time>2010-01-01T01:50:57Z</time>
      </trkpt>
      <trkpt lat="47.67073" lon="6.12877">
        <ele>235</ele>
        <time>2010-01-01T01:51:11Z</time>
      </trkpt>
      <trkpt lat="47.67048" lon="6.1291">
        <ele>235</ele>
        <time>2010-01-01T01:51:25Z</time>
      </trkpt>
      <trkpt lat="47.67035" lon="6.12938">
        <ele>235</ele>
        <time>2010-01-01T01:51:34Z</time>
      </trkpt>
      <trkpt lat="47.66936" lon="6.13209">
        <ele>245</ele>
        <time>2010-01-01T01:52:57Z</time>
      </trkpt>
      <trkpt lat="47.66908" lon="6.13327">
        <ele>244</ele>
        <time>2010-01-01T01:53:31Z</time>
      </trkpt>
      <trkpt lat="47.6689" lon="6.13382">
        <ele>245</ele>
        <time>2010-01-01T01:53:47Z</time>
      </trkpt>
      <trkpt lat="47.66818" lon="6.13522">
        <ele>240</ele>
        <time>2010-01-01T01:54:35Z</time>
      </trkpt>
      <trkpt lat="47.66812" lon="6.1354">
        <ele>239</ele>
        <time>2010-01-01T01:54:40Z</time>
      </trkpt>
      <trkpt lat="47.66803" lon="6.13597">
        <ele>238</ele>
        <time>2010-01-01T01:54:56Z</time>
      </trkpt>
      <trkpt lat="47.66805" lon="6.13655">
        <ele>236</ele>
        <time>2010-01-01T01:55:12Z</time>
      </trkpt>
      <trkpt lat="47.66822" lon="6.1376">
        <ele>237</ele>
        <time>2010-01-01T01:55:41Z</time>
      </trkpt>
      <trkpt lat="47.66821" lon="6.13803">
        <ele>237</ele>
        <time>2010-01-01T01:55:52Z</time>
      </trkpt>
      <trkpt lat="47.668" lon="6.13885">
        <ele>236</ele>
        <time>2010-01-01T01:56:16Z</time>
      </trkpt>
      <trkpt lat="47.66775" lon="6.14058">
        <ele>238</ele>
        <time>2010-01-01T01:57:04Z</time>
      </trkpt>
      <trkpt lat="47.6676" lon="6.14198">
        <ele>241</ele>
        <time>2010-01-01T01:57:42Z</time>
      </trkpt>
      <trkpt lat="47.66751" lon="6.14239">
        <ele>243</ele>
        <time>2010-01-01T01:57:53Z</time>
      </trkpt>
      <trkpt lat="47.6674" lon="6.14289">
        <ele>246</ele>
        <time>2010-01-01T01:58:08Z</time>
      </trkpt>
      <trkpt lat="47.66715" lon="6.14467">
        <ele>254</ele>
        <time>2010-01-01T01:58:57Z</time>
      </trkpt>
      <trkpt lat="47.66719" lon="6.14543">
        <ele>255</ele>
        <time>2010-01-01T01:59:17Z</time>
      </trkpt>
      <trkpt lat="47.66731" lon="6.14625">
        <ele>256</ele>
        <time>2010-01-01T01:59:40Z</time>
      </trkpt>
      <trkpt lat="47.66738" lon="6.14713">
        <ele>258</ele>
        <time>2010-01-01T02:00:04Z</time>
      </trkpt>
      <trkpt lat="47.66717" lon="6.14816">
        <ele>257</ele>
        <time>2010-01-01T02:00:33Z</time>
      </trkpt>
      <trkpt lat="47.66783" lon="6.14889">
        <ele>258</ele>
        <time>2010-01-01T02:01:06Z</time>
      </trkpt>
      <trkpt lat="47.66718" lon="6.15003">
        <ele>255</ele>
        <time>2010-01-01T02:01:46Z</time>
      </trkpt>
      <trkpt lat="47.66671" lon="6.15041">
        <ele>252</ele>
        <time>2010-01-01T02:02:07Z</time>
      </trkpt>
      <trkpt lat="47.66643" lon="6.1505">
        <ele>250</ele>
        <time>2010-01-01T02:02:19Z</time>
      </trkpt>
      <trkpt lat="47.66587" lon="6.15053">
        <ele>247</ele>
        <time>2010-01-01T02:02:41Z</time>
      </trkpt>
      <trkpt lat="47.66564" lon="6.15048">
        <ele>245</ele>
        <time>2010-01-01T02:02:51Z</time>
      </trkpt>
      <trkpt lat="47.66505" lon="6.15049">
        <ele>241</ele>
        <time>2010-01-01T02:03:14Z</time>
      </trkpt>
      <trkpt lat="47.66462" lon="6.15033">
        <ele>241</ele>
        <time>2010-01-01T02:03:32Z</time>
      </trkpt>
      <trkpt lat="47.66378" lon="6.15051">
        <ele>239</ele>
        <time>2010-01-01T02:04:06Z</time>
      </trkpt>
      <trkpt lat="47.66347" lon="6.15053">
        <ele>239</ele>
        <time>2010-01-01T02:04:18Z</time>
      </trkpt>
      <trkpt lat="47.66174" lon="6.15023">
        <ele>231</ele>
        <time>2010-01-01T02:05:28Z</time>
      </trkpt>
      <trkpt lat="47.66024" lon="6.15024">
        <ele>225</ele>
        <time>2010-01-01T02:06:28Z</time>
      </trkpt>
      <trkpt lat="47.65868" lon="6.15016">
        <ele>229</ele>
        <time>2010-01-01T02:07:31Z</time>
      </trkpt>
      <trkpt lat="47.65746" lon="6.15023">
        <ele>231</ele>
        <time>2010-01-01T02:08:19Z</time>
      </trkpt>
      <trkpt lat="47.65707" lon="6.1502">
        <ele>229</ele>
        <time>2010-01-01T02:08:35Z</time>
      </trkpt>
      <trkpt lat="47.65734" lon="6.15162">
        <ele>227</ele>
        <time>2010-01-01T02:09:15Z</time>
      </trkpt>
      <trkpt lat="47.658" lon="6.15507">
        <ele>223</ele>
        <time>2010-01-01T02:10:52Z</time>
      </trkpt>
      <trkpt lat="47.65867" lon="6.15831">
        <ele>233</ele>
        <time>2010-01-01T02:12:23Z</time>
      </trkpt>
      <trkpt lat="47.65875" lon="6.15855">
        <ele>234</ele>
        <time>2010-01-01T02:12:30Z</time>
      </trkpt>
      <trkpt lat="47.65932" lon="6.15956">
        <ele>236</ele>
        <time>2010-01-01T02:13:06Z</time>
      </trkpt>
      <trkpt lat="47.65568" lon="6.16477">
        <ele>235</ele>
        <time>2010-01-01T02:16:28Z</time>
      </trkpt>
      <trkpt lat="47.65527" lon="6.16543">
        <ele>234</ele>
        <time>2010-01-01T02:16:52Z</time>
      </trkpt>
      <trkpt lat="47.6519" lon="6.16483">
        <ele>232</ele>
        <time>2010-01-01T02:19:08Z</time>
      </trkpt>
      <trkpt lat="47.65177" lon="6.16556">
        <ele>236</ele>
        <time>2010-01-01T02:19:29Z</time>
      </trkpt>
      <trkpt lat="47.65076" lon="6.16548">
        <ele>237</ele>
        <time>2010-01-01T02:20:09Z</time>
      </trkpt>
      <trkpt lat="47.65135" lon="6.16803">
        <ele>248</ele>
        <time>2010-01-01T02:21:22Z</time>
      </trkpt>
      <trkpt lat="47.65064" lon="6.16915">
        <ele>248</ele>
        <time>2010-01-01T02:22:03Z</time>
      </trkpt>
      <trkpt lat="47.64985" lon="6.17029">
        <ele>251</ele>
        <time>2010-01-01T02:22:48Z</time>
      </trkpt>
      <trkpt lat="47.64914" lon="6.17114">
        <ele>249</ele>
        <time>2010-01-01T02:23:24Z</time>
      </trkpt>
      <trkpt lat="47.64856" lon="6.17171">
        <ele>245</ele>
        <time>2010-01-01T02:23:52Z</time>
      </trkpt>
      <trkpt lat="47.64837" lon="6.17197">
        <ele>244</ele>
        <time>2010-01-01T02:24:02Z</time>
      </trkpt>
      <trkpt lat="47.64793" lon="6.17302">
        <ele>243</ele>
        <time>2010-01-01T02:24:36Z</time>
      </trkpt>
      <trkpt lat="47.64757" lon="6.17406">
        <ele>239</ele>
        <time>2010-01-01T02:25:07Z</time>
      </trkpt>
      <trkpt lat="47.64733" lon="6.17496">
        <ele>234</ele>
        <time>2010-01-01T02:25:33Z</time>
      </trkpt>
      <trkpt lat="47.64719" lon="6.17532">
        <ele>232</ele>
        <time>2010-01-01T02:25:44Z</time>
      </trkpt>
      <trkpt lat="47.6469" lon="6.17578">
        <ele>228</ele>
        <time>2010-01-01T02:26:01Z</time>
      </trkpt>
      <trkpt lat="47.64679" lon="6.17584">
        <ele>227</ele>
        <time>2010-01-01T02:26:06Z</time>
      </trkpt>
      <trkpt lat="47.64647" lon="6.17585">
        <ele>227</ele>
        <time>2010-01-01T02:26:19Z</time>
      </trkpt>
      <trkpt lat="47.6464" lon="6.17595">
        <ele>226</ele>
        <time>2010-01-01T02:26:23Z</time>
      </trkpt>
      <trkpt lat="47.64637" lon="6.17612">
        <ele>225</ele>
        <time>2010-01-01T02:26:28Z</time>
      </trkpt>
      <trkpt lat="47.64627" lon="6.17618">
        <ele>225</ele>
        <time>2010-01-01T02:26:32Z</time>
      </trkpt>
      <trkpt lat="47.64614" lon="6.17684">
        <ele>223</ele>
        <time>2010-01-01T02:26:50Z</time>
      </trkpt>
      <trkpt lat="47.64613" lon="6.17709">
        <ele>223</ele>
        <time>2010-01-01T02:26:57Z</time>
      </trkpt>
      <trkpt lat="47.64639" lon="6.17793">
        <ele>222</ele>
        <time>2010-01-01T02:27:22Z</time>
      </trkpt>
      <trkpt lat="47.64619" lon="6.17851">
        <ele>223</ele>
        <time>2010-01-01T02:27:40Z</time>
      </trkpt>
      <trkpt lat="47.64614" lon="6.17886">
        <ele>223</ele>
        <time>2010-01-01T02:27:49Z</time>
      </trkpt>
      <trkpt lat="47.64597" lon="6.17896">
        <ele>224</ele>
        <time>2010-01-01T02:27:57Z</time>
      </trkpt>
      <trkpt lat="47.64566" lon="6.17931">
        <ele>225</ele>
        <time>2010-01-01T02:28:12Z</time>
      </trkpt>
      <trkpt lat="47.64548" lon="6.17997">
        <ele>229</ele>
        <time>2010-01-01T02:28:31Z</time>
      </trkpt>
      <trkpt lat="47.64535" lon="6.18028">
        <ele>228</ele>
        <time>2010-01-01T02:28:41Z</time>
      </trkpt>
      <trkpt lat="47.6451" lon="6.18048">
        <ele>225</ele>
        <time>2010-01-01T02:28:53Z</time>
      </trkpt>
      <trkpt lat="47.64493" lon="6.18136">
        <ele>224</ele>
        <time>2010-01-01T02:29:17Z</time>
      </trkpt>
      <trkpt lat="47.64496" lon="6.18168">
        <ele>225</ele>
        <time>2010-01-01T02:29:26Z</time>
      </trkpt>
      <trkpt lat="47.64505" lon="6.18173">
        <ele>226</ele>
        <time>2010-01-01T02:29:30Z</time>
      </trkpt>
      <trkpt lat="47.64483" lon="6.18238">
        <ele>228</ele>
        <time>2010-01-01T02:29:49Z</time>
      </trkpt>
      <trkpt lat="47.64461" lon="6.18274">
        <ele>230</ele>
        <time>2010-01-01T02:30:03Z</time>
      </trkpt>
      <trkpt lat="47.64436" lon="6.18304">
        <ele>229</ele>
        <time>2010-01-01T02:30:15Z</time>
      </trkpt>
    </trkseg>
  </trk>
</gpx>